Atlanta, MI

5:06 PM EST on January 29, 2015 (GMT -0500)
RAWS ATLANTA MI US | Change Station
CLOSE
Current Station
Personal Weather Station
Location: Atlanta, MI
Elevation: 895 ft
Nearby Weather Stations

Elev 895 ft 45.15 °N, 84.19 °W | Updated 58 minutes ago

Overcast
Overcast
29 °F
Feels Like 19 °F
N
12
Wind Variable Wind from SSE
Gusts 20.0 mph

Today
High -- | Low -- °F
--% Chance of Precip.
Yesterday
High -- | Low -- °F
Precip. -- in
7:59 AM 5:39 PM
Waxing Gibbous, 77% visible
Pressure 29.88 in
Visibility 10.0 miles
Clouds Overcast 800 ft
Windchill 19 °F
Dew Point 27 °F
Humidity 93%
Rainfall -999.00 in
Snow Depth Not available.
UV 0 out of 12
Pollen .10 out of 12
Air Quality Not available.
Flu Activity Not available.
METAR KGLR 292153Z AUTO 30012G23KT 10SM OVC008 M03/M04 A2983 RMK AO2 PK WND 32027/2108 UPB2058E20 SLP119 P0000 T10331044

More Conditions Fewer Conditions

Pressure 29.88 in
Visibility 10.0 miles
Clouds Overcast 800 ft
Windchill 19 °F
Dew Point 27 °F
Humidity 93%
Rainfall -999.00 in
Snow Depth Not available.
UV 0 out of 12
Pollen .10 out of 12
Air Quality Not available.
Flu Activity Not available.
METAR KGLR 292153Z AUTO 30012G23KT 10SM OVC008 M03/M04 A2983 RMK AO2 PK WND 32027/2108 UPB2058E20 SLP119 P0000 T10331044

More Conditions Fewer Conditions

Nowcast | as of 5:00 PM EST on January 29, 2015

At 6 PM...cloudy. Patchy blowing snow. Temperature 26. Northwest winds 15 mph with gusts to 30 mph. At 8 PM...cloudy. Patchy blowing snow. Temperature 21. Northwest winds 17 mph with gusts to 35 mph. At 10 PM...cloudy. Patchy blowing snow. Temperature 16. Northwest winds 17 mph with gusts to 35 mph. Wind chill zero. At 12 am...mostly cloudy. Patchy blowing snow. Temperature 10 above. Northwest winds 16 mph with gusts to 30 mph. Wind chill 7 below.

×

10-Day Weather Forecast

Almanac

Astronomy

Jan. 29, 2015 Rise Set
Actual Time
Civil Twilight
Nautical Twilight
Astronomical Twilight
Moon
Length of Visible Light
Length of Day
Tomorrow will be .
, % of the Moon is Illuminated

Today's Extremes

State Highs State Lows

Community

WunderPhotos

Upload Photos

1,791,623 photos uploaded!

WunderBlogs® & News

Nearby

Air Quality

  Air Quality AQ Index Pollutant
Not available.

Snow Depth

Station Depth Elevation

Earthquake Activity

City Distance Mag. Time & Date
Minimum magnitude displayed is 2.5.

Coastal Water Temperatures

Place Temperature

Nearby Weather Stations